sensor_id;sensor_type;location;lat;lon;timestamp;P1;durP1;ratioP1;P2;durP2;ratioP2
58372;SDS011;44177;43.356;27.672;2022-08-03T00:01:05;4.13;;;3.10;;
58372;SDS011;44177;43.356;27.672;2022-08-03T00:03:30;3.33;;;2.90;;
58372;SDS011;44177;43.356;27.672;2022-08-03T00:05:57;5.25;;;3.10;;
58372;SDS011;44177;43.356;27.672;2022-08-03T00:08:22;4.03;;;3.45;;
58372;SDS011;44177;43.356;27.672;2022-08-03T00:10:49;3.50;;;2.95;;
58372;SDS011;44177;43.356;27.672;2022-08-03T00:13:15;3.80;;;3.25;;
58372;SDS011;44177;43.356;27.672;2022-08-03T00:15:41;4.38;;;3.47;;
58372;SDS011;44177;43.356;27.672;2022-08-03T00:18:07;4.85;;;3.22;;
58372;SDS011;44177;43.356;27.672;2022-08-03T00:20:33;3.13;;;2.80;;
58372;SDS011;44177;43.356;27.672;2022-08-03T00:22:59;2.88;;;2.65;;
58372;SDS011;44177;43.356;27.672;2022-08-03T00:25:24;5.15;;;3.03;;
58372;SDS011;44177;43.356;27.672;2022-08-03T00:27:50;3.45;;;2.83;;
58372;SDS011;44177;43.356;27.672;2022-08-03T00:30:16;4.78;;;3.13;;
58372;SDS011;44177;43.356;27.672;2022-08-03T00:32:42;3.00;;;2.70;;
58372;SDS011;44177;43.356;27.672;2022-08-03T00:35:07;3.67;;;3.08;;
58372;SDS011;44177;43.356;27.672;2022-08-03T00:37:33;4.65;;;3.00;;
58372;SDS011;44177;43.356;27.672;2022-08-03T00:39:59;4.90;;;3.40;;
58372;SDS011;44177;43.356;27.672;2022-08-03T00:42:24;2.78;;;2.53;;
58372;SDS011;44177;43.356;27.672;2022-08-03T00:44:50;4.18;;;3.05;;
58372;SDS011;44177;43.356;27.672;2022-08-03T00:47:16;3.13;;;2.80;;
58372;SDS011;44177;43.356;27.672;2022-08-03T00:49:41;4.40;;;2.80;;
58372;SDS011;44177;43.356;27.672;2022-08-03T00:52:07;4.00;;;2.83;;
58372;SDS011;44177;43.356;27.672;2022-08-03T00:54:35;3.83;;;3.10;;
58372;SDS011;44177;43.356;27.672;2022-08-03T00:57:02;3.83;;;3.05;;
58372;SDS011;44177;43.356;27.672;2022-08-03T00:59:29;4.00;;;3.08;;
58372;SDS011;44177;43.356;27.672;2022-08-03T01:01:55;4.13;;;2.70;;
58372;SDS011;44177;43.356;27.672;2022-08-03T01:04:21;3.50;;;2.90;;
58372;SDS011;44177;43.356;27.672;2022-08-03T01:06:49;3.85;;;3.20;;
58372;SDS011;44177;43.356;27.672;2022-08-03T01:17:35;3.65;;;2.78;;
58372;SDS011;44177;43.356;27.672;2022-08-03T01:30:52;3.00;;;2.45;;
58372;SDS011;44177;43.356;27.672;2022-08-03T01:33:23;4.63;;;2.42;;
58372;SDS011;44177;43.356;27.672;2022-08-03T01:35:53;2.35;;;2.15;;
58372;SDS011;44177;43.356;27.672;2022-08-03T01:38:35;2.83;;;2.13;;
58372;SDS011;44177;43.356;27.672;2022-08-03T01:41:07;2.55;;;2.30;;
58372;SDS011;44177;43.356;27.672;2022-08-03T01:43:37;2.60;;;2.25;;
58372;SDS011;44177;43.356;27.672;2022-08-03T01:46:06;2.40;;;2.20;;
58372;SDS011;44177;43.356;27.672;2022-08-03T01:48:34;3.03;;;2.15;;
58372;SDS011;44177;43.356;27.672;2022-08-03T01:51:01;3.47;;;2.40;;
58372;SDS011;44177;43.356;27.672;2022-08-03T01:53:29;2.50;;;2.30;;
58372;SDS011;44177;43.356;27.672;2022-08-03T01:55:56;2.50;;;2.10;;
58372;SDS011;44177;43.356;27.672;2022-08-03T01:58:23;2.25;;;2.05;;
58372;SDS011;44177;43.356;27.672;2022-08-03T02:00:49;2.95;;;2.30;;
58372;SDS011;44177;43.356;27.672;2022-08-03T02:03:17;2.95;;;2.40;;
58372;SDS011;44177;43.356;27.672;2022-08-03T02:05:45;2.53;;;2.33;;
58372;SDS011;44177;43.356;27.672;2022-08-03T02:08:12;2.38;;;2.15;;
58372;SDS011;44177;43.356;27.672;2022-08-03T02:10:40;2.42;;;1.90;;
58372;SDS011;44177;43.356;27.672;2022-08-03T02:13:08;2.38;;;2.17;;
58372;SDS011;44177;43.356;27.672;2022-08-03T02:15:35;3.95;;;2.42;;
58372;SDS011;44177;43.356;27.672;2022-08-03T02:18:02;2.80;;;2.50;;
58372;SDS011;44177;43.356;27.672;2022-08-03T02:20:30;2.58;;;2.38;;
58372;SDS011;44177;43.356;27.672;2022-08-03T02:23:00;3.38;;;2.58;;
58372;SDS011;44177;43.356;27.672;2022-08-03T02:25:25;2.50;;;2.30;;
58372;SDS011;44177;43.356;27.672;2022-08-03T02:27:56;3.22;;;2.25;;
58372;SDS011;44177;43.356;27.672;2022-08-03T02:30:28;2.63;;;2.42;;
58372;SDS011;44177;43.356;27.672;2022-08-03T02:33:02;3.03;;;2.60;;
58372;SDS011;44177;43.356;27.672;2022-08-03T02:35:29;4.07;;;2.72;;
58372;SDS011;44177;43.356;27.672;2022-08-03T02:38:02;3.30;;;2.58;;
58372;SDS011;44177;43.356;27.672;2022-08-03T02:40:30;2.83;;;2.50;;
58372;SDS011;44177;43.356;27.672;2022-08-03T02:42:58;3.15;;;2.60;;
58372;SDS011;44177;43.356;27.672;2022-08-03T02:45:26;3.67;;;2.60;;
58372;SDS011;44177;43.356;27.672;2022-08-03T02:47:54;3.60;;;2.90;;
58372;SDS011;44177;43.356;27.672;2022-08-03T02:50:24;3.65;;;3.00;;
58372;SDS011;44177;43.356;27.672;2022-08-03T02:52:51;3.00;;;2.70;;
58372;SDS011;44177;43.356;27.672;2022-08-03T02:55:19;3.72;;;3.05;;
58372;SDS011;44177;43.356;27.672;2022-08-03T02:57:47;7.38;;;3.20;;
58372;SDS011;44177;43.356;27.672;2022-08-03T03:00:15;3.67;;;3.25;;
58372;SDS011;44177;43.356;27.672;2022-08-03T03:02:41;3.10;;;2.80;;
58372;SDS011;44177;43.356;27.672;2022-08-03T03:05:08;4.28;;;2.97;;
58372;SDS011;44177;43.356;27.672;2022-08-03T03:07:34;4.28;;;3.00;;
58372;SDS011;44177;43.356;27.672;2022-08-03T03:10:02;4.63;;;3.20;;
58372;SDS011;44177;43.356;27.672;2022-08-03T03:12:28;3.53;;;3.10;;
58372;SDS011;44177;43.356;27.672;2022-08-03T03:14:55;4.80;;;3.20;;
58372;SDS011;44177;43.356;27.672;2022-08-03T03:17:20;4.05;;;3.58;;
58372;SDS011;44177;43.356;27.672;2022-08-03T03:19:47;3.85;;;3.10;;
58372;SDS011;44177;43.356;27.672;2022-08-03T03:22:15;4.35;;;3.35;;
58372;SDS011;44177;43.356;27.672;2022-08-03T03:24:41;3.92;;;3.22;;
58372;SDS011;44177;43.356;27.672;2022-08-03T03:27:08;3.50;;;3.15;;
58372;SDS011;44177;43.356;27.672;2022-08-03T03:29:33;3.50;;;3.03;;
58372;SDS011;44177;43.356;27.672;2022-08-03T03:31:59;5.85;;;3.10;;
58372;SDS011;44177;43.356;27.672;2022-08-03T03:34:25;3.65;;;3.10;;
58372;SDS011;44177;43.356;27.672;2022-08-03T03:36:54;3.50;;;3.10;;
58372;SDS011;44177;43.356;27.672;2022-08-03T03:39:20;4.45;;;3.08;;
58372;SDS011;44177;43.356;27.672;2022-08-03T03:41:45;3.47;;;3.08;;
58372;SDS011;44177;43.356;27.672;2022-08-03T03:44:11;3.83;;;2.88;;
58372;SDS011;44177;43.356;27.672;2022-08-03T03:46:37;3.70;;;2.78;;
58372;SDS011;44177;43.356;27.672;2022-08-03T03:49:04;3.00;;;2.70;;
58372;SDS011;44177;43.356;27.672;2022-08-03T03:51:31;3.40;;;3.10;;
58372;SDS011;44177;43.356;27.672;2022-08-03T03:53:58;5.25;;;3.10;;
58372;SDS011;44177;43.356;27.672;2022-08-03T03:56:25;3.83;;;2.85;;
58372;SDS011;44177;43.356;27.672;2022-08-03T03:58:50;3.42;;;3.00;;
58372;SDS011;44177;43.356;27.672;2022-08-03T04:01:17;3.33;;;2.50;;
58372;SDS011;44177;43.356;27.672;2022-08-03T04:03:43;4.50;;;3.00;;
58372;SDS011;44177;43.356;27.672;2022-08-03T04:06:09;3.65;;;3.20;;
58372;SDS011;44177;43.356;27.672;2022-08-03T04:08:53;5.28;;;3.28;;
58372;SDS011;44177;43.356;27.672;2022-08-03T04:14:19;3.20;;;2.65;;
58372;SDS011;44177;43.356;27.672;2022-08-03T04:16:48;3.03;;;2.72;;
58372;SDS011;44177;43.356;27.672;2022-08-03T04:19:21;3.22;;;2.85;;
58372;SDS011;44177;43.356;27.672;2022-08-03T04:21:53;3.40;;;3.00;;
58372;SDS011;44177;43.356;27.672;2022-08-03T04:24:24;3.38;;;2.85;;
58372;SDS011;44177;43.356;27.672;2022-08-03T04:26:54;2.92;;;2.22;;
58372;SDS011;44177;43.356;27.672;2022-08-03T04:29:21;3.25;;;2.65;;
58372;SDS011;44177;43.356;27.672;2022-08-03T04:31:50;3.17;;;2.60;;
58372;SDS011;44177;43.356;27.672;2022-08-03T04:34:18;2.67;;;2.47;;
58372;SDS011;44177;43.356;27.672;2022-08-03T04:36:49;2.45;;;2.25;;
58372;SDS011;44177;43.356;27.672;2022-08-03T04:39:22;2.63;;;2.20;;
58372;SDS011;44177;43.356;27.672;2022-08-03T04:41:52;2.38;;;2.17;;
58372;SDS011;44177;43.356;27.672;2022-08-03T04:44:20;2.38;;;2.15;;
58372;SDS011;44177;43.356;27.672;2022-08-03T04:46:48;2.25;;;2.05;;
58372;SDS011;44177;43.356;27.672;2022-08-03T04:49:14;2.08;;;1.88;;
58372;SDS011;44177;43.356;27.672;2022-08-03T04:51:40;2.00;;;1.80;;
58372;SDS011;44177;43.356;27.672;2022-08-03T04:54:10;1.83;;;1.58;;
58372;SDS011;44177;43.356;27.672;2022-08-03T04:56:38;2.92;;;2.03;;
58372;SDS011;44177;43.356;27.672;2022-08-03T04:59:05;2.17;;;1.80;;
58372;SDS011;44177;43.356;27.672;2022-08-03T05:01:31;2.80;;;2.00;;
58372;SDS011;44177;43.356;27.672;2022-08-03T05:03:56;1.83;;;1.65;;
58372;SDS011;44177;43.356;27.672;2022-08-03T05:06:22;2.15;;;1.75;;
58372;SDS011;44177;43.356;27.672;2022-08-03T05:08:47;2.40;;;1.60;;
58372;SDS011;44177;43.356;27.672;2022-08-03T05:11:14;1.83;;;1.70;;
58372;SDS011;44177;43.356;27.672;2022-08-03T05:13:40;2.00;;;1.40;;
58372;SDS011;44177;43.356;27.672;2022-08-03T05:16:05;1.50;;;1.40;;
58372;SDS011;44177;43.356;27.672;2022-08-03T05:18:31;1.75;;;1.40;;
58372;SDS011;44177;43.356;27.672;2022-08-03T05:20:56;1.83;;;1.48;;
58372;SDS011;44177;43.356;27.672;2022-08-03T05:23:22;1.95;;;1.38;;
58372;SDS011;44177;43.356;27.672;2022-08-03T05:25:47;1.60;;;1.50;;
58372;SDS011;44177;43.356;27.672;2022-08-03T05:28:12;1.85;;;1.55;;
58372;SDS011;44177;43.356;27.672;2022-08-03T05:30:38;2.42;;;1.70;;
58372;SDS011;44177;43.356;27.672;2022-08-03T05:33:03;3.30;;;1.50;;
58372;SDS011;44177;43.356;27.672;2022-08-03T05:35:29;8.60;;;3.25;;
58372;SDS011;44177;43.356;27.672;2022-08-03T05:37:56;1.58;;;1.48;;
58372;SDS011;44177;43.356;27.672;2022-08-03T13:49:24;1.30;;;1.00;;
58372;SDS011;44177;43.356;27.672;2022-08-03T13:51:49;1.75;;;1.17;;
58372;SDS011;44177;43.356;27.672;2022-08-03T13:54:15;1.17;;;1.00;;
58372;SDS011;44177;43.356;27.672;2022-08-03T13:56:40;1.33;;;1.00;;
58372;SDS011;44177;43.356;27.672;2022-08-03T13:59:06;1.20;;;1.10;;
58372;SDS011;44177;43.356;27.672;2022-08-03T14:01:31;0.95;;;0.95;;
58372;SDS011;44177;43.356;27.672;2022-08-03T14:03:57;1.35;;;1.15;;
58372;SDS011;44177;43.356;27.672;2022-08-03T14:06:22;1.00;;;1.00;;
58372;SDS011;44177;43.356;27.672;2022-08-03T14:08:49;2.60;;;0.90;;
58372;SDS011;44177;43.356;27.672;2022-08-03T14:11:16;0.93;;;0.93;;
58372;SDS011;44177;43.356;27.672;2022-08-03T14:13:42;1.20;;;1.10;;
58372;SDS011;44177;43.356;27.672;2022-08-03T14:16:08;2.55;;;1.10;;
58372;SDS011;44177;43.356;27.672;2022-08-03T14:18:33;1.15;;;1.05;;
58372;SDS011;44177;43.356;27.672;2022-08-03T14:21:00;0.80;;;0.80;;
58372;SDS011;44177;43.356;27.672;2022-08-03T14:23:26;1.10;;;1.00;;
58372;SDS011;44177;43.356;27.672;2022-08-03T14:25:52;3.63;;;1.00;;
58372;SDS011;44177;43.356;27.672;2022-08-03T14:28:18;2.72;;;1.17;;
58372;SDS011;44177;43.356;27.672;2022-08-03T14:30:47;0.85;;;0.85;;
58372;SDS011;44177;43.356;27.672;2022-08-03T14:33:12;0.75;;;0.75;;
58372;SDS011;44177;43.356;27.672;2022-08-03T14:35:38;0.80;;;0.80;;
58372;SDS011;44177;43.356;27.672;2022-08-03T14:38:04;1.45;;;0.93;;
58372;SDS011;44177;43.356;27.672;2022-08-03T14:40:29;1.10;;;1.00;;
58372;SDS011;44177;43.356;27.672;2022-08-03T14:42:55;1.67;;;0.90;;
58372;SDS011;44177;43.356;27.672;2022-08-03T14:45:20;0.77;;;0.75;;
58372;SDS011;44177;43.356;27.672;2022-08-03T14:47:46;1.45;;;1.00;;
58372;SDS011;44177;43.356;27.672;2022-08-03T14:50:11;1.20;;;1.10;;
58372;SDS011;44177;43.356;27.672;2022-08-03T14:52:37;1.15;;;1.05;;
58372;SDS011;44177;43.356;27.672;2022-08-03T14:55:02;1.23;;;0.90;;
58372;SDS011;44177;43.356;27.672;2022-08-03T14:57:28;2.47;;;1.02;;
58372;SDS011;44177;43.356;27.672;2022-08-03T14:59:54;0.77;;;0.77;;
58372;SDS011;44177;43.356;27.672;2022-08-03T15:02:19;0.90;;;0.90;;
58372;SDS011;44177;43.356;27.672;2022-08-03T15:04:45;0.70;;;0.70;;
58372;SDS011;44177;43.356;27.672;2022-08-03T15:07:10;0.88;;;0.88;;
58372;SDS011;44177;43.356;27.672;2022-08-03T15:09:36;1.17;;;0.80;;
58372;SDS011;44177;43.356;27.672;2022-08-03T15:12:03;1.35;;;0.80;;
58372;SDS011;44177;43.356;27.672;2022-08-03T15:14:30;1.10;;;1.10;;
58372;SDS011;44177;43.356;27.672;2022-08-03T15:16:55;0.90;;;0.90;;
58372;SDS011;44177;43.356;27.672;2022-08-03T15:19:21;0.85;;;0.85;;
58372;SDS011;44177;43.356;27.672;2022-08-03T15:21:46;0.80;;;0.80;;
58372;SDS011;44177;43.356;27.672;2022-08-03T15:24:12;1.00;;;1.00;;
58372;SDS011;44177;43.356;27.672;2022-08-03T15:26:37;0.90;;;0.90;;
58372;SDS011;44177;43.356;27.672;2022-08-03T15:29:03;1.02;;;0.80;;
58372;SDS011;44177;43.356;27.672;2022-08-03T15:31:28;1.35;;;0.90;;
58372;SDS011;44177;43.356;27.672;2022-08-03T15:33:54;0.90;;;0.90;;
58372;SDS011;44177;43.356;27.672;2022-08-03T15:36:19;1.58;;;0.93;;
58372;SDS011;44177;43.356;27.672;2022-08-03T15:38:45;1.13;;;0.82;;
58372;SDS011;44177;43.356;27.672;2022-08-03T15:41:12;1.38;;;0.68;;
58372;SDS011;44177;43.356;27.672;2022-08-03T15:43:38;0.77;;;0.70;;
58372;SDS011;44177;43.356;27.672;2022-08-03T15:46:04;0.88;;;0.88;;
58372;SDS011;44177;43.356;27.672;2022-08-03T15:48:30;0.77;;;0.77;;
58372;SDS011;44177;43.356;27.672;2022-08-03T15:50:55;0.80;;;0.80;;
58372;SDS011;44177;43.356;27.672;2022-08-03T15:53:20;0.90;;;0.90;;
58372;SDS011;44177;43.356;27.672;2022-08-03T15:55:46;2.30;;;1.70;;
58372;SDS011;44177;43.356;27.672;2022-08-03T15:58:12;0.73;;;0.73;;
58372;SDS011;44177;43.356;27.672;2022-08-03T16:00:37;0.93;;;0.82;;
58372;SDS011;44177;43.356;27.672;2022-08-03T16:03:03;1.10;;;1.00;;
58372;SDS011;44177;43.356;27.672;2022-08-03T16:05:29;1.55;;;1.00;;
58372;SDS011;44177;43.356;27.672;2022-08-03T16:07:55;1.58;;;0.77;;
58372;SDS011;44177;43.356;27.672;2022-08-03T16:10:20;0.85;;;0.85;;
58372;SDS011;44177;43.356;27.672;2022-08-03T16:12:46;0.90;;;0.90;;
58372;SDS011;44177;43.356;27.672;2022-08-03T16:15:13;1.20;;;0.80;;
58372;SDS011;44177;43.356;27.672;2022-08-03T16:17:39;1.48;;;1.00;;
58372;SDS011;44177;43.356;27.672;2022-08-03T16:20:06;1.15;;;1.05;;
58372;SDS011;44177;43.356;27.672;2022-08-03T16:22:33;0.98;;;0.90;;
58372;SDS011;44177;43.356;27.672;2022-08-03T16:25:05;1.45;;;1.20;;
58372;SDS011;44177;43.356;27.672;2022-08-03T16:27:31;1.00;;;0.80;;
58372;SDS011;44177;43.356;27.672;2022-08-03T16:29:56;0.95;;;0.90;;
58372;SDS011;44177;43.356;27.672;2022-08-03T16:32:22;1.10;;;1.00;;
58372;SDS011;44177;43.356;27.672;2022-08-03T16:34:47;1.20;;;1.10;;
58372;SDS011;44177;43.356;27.672;2022-08-03T16:37:13;1.95;;;1.05;;
58372;SDS011;44177;43.356;27.672;2022-08-03T16:39:39;1.60;;;1.20;;
58372;SDS011;44177;43.356;27.672;2022-08-03T16:42:04;1.30;;;1.20;;
58372;SDS011;44177;43.356;27.672;2022-08-03T16:44:30;1.80;;;1.60;;
58372;SDS011;44177;43.356;27.672;2022-08-03T16:46:55;1.30;;;1.20;;
58372;SDS011;44177;43.356;27.672;2022-08-03T16:49:21;1.65;;;1.30;;
58372;SDS011;44177;43.356;27.672;2022-08-03T16:51:47;1.45;;;1.35;;
58372;SDS011;44177;43.356;27.672;2022-08-03T16:54:13;1.85;;;1.30;;
58372;SDS011;44177;43.356;27.672;2022-08-03T16:56:39;1.27;;;1.17;;
58372;SDS011;44177;43.356;27.672;2022-08-03T16:59:05;1.33;;;1.23;;
58372;SDS011;44177;43.356;27.672;2022-08-03T17:01:30;1.08;;;1.08;;
58372;SDS011;44177;43.356;27.672;2022-08-03T17:03:57;1.20;;;1.10;;
58372;SDS011;44177;43.356;27.672;2022-08-03T17:06:24;1.27;;;1.17;;
58372;SDS011;44177;43.356;27.672;2022-08-03T17:08:50;1.73;;;1.30;;
58372;SDS011;44177;43.356;27.672;2022-08-03T17:11:16;1.02;;;1.02;;
58372;SDS011;44177;43.356;27.672;2022-08-03T17:13:42;1.38;;;1.20;;
58372;SDS011;44177;43.356;27.672;2022-08-03T17:16:10;1.60;;;1.30;;
58372;SDS011;44177;43.356;27.672;2022-08-03T17:18:39;1.27;;;1.17;;
58372;SDS011;44177;43.356;27.672;2022-08-03T17:21:11;1.33;;;1.23;;
58372;SDS011;44177;43.356;27.672;2022-08-03T17:26:36;1.33;;;1.23;;
58372;SDS011;44177;43.356;27.672;2022-08-03T17:29:07;2.05;;;1.30;;
58372;SDS011;44177;43.356;27.672;2022-08-03T17:31:34;4.05;;;1.80;;
58372;SDS011;44177;43.356;27.672;2022-08-03T17:34:01;2.28;;;1.50;;
58372;SDS011;44177;43.356;27.672;2022-08-03T17:36:27;2.17;;;1.33;;
58372;SDS011;44177;43.356;27.672;2022-08-03T17:38:53;2.17;;;1.83;;
58372;SDS011;44177;43.356;27.672;2022-08-03T17:41:19;2.78;;;1.85;;
58372;SDS011;44177;43.356;27.672;2022-08-03T17:43:47;1.95;;;1.70;;
58372;SDS011;44177;43.356;27.672;2022-08-03T17:46:16;1.50;;;1.40;;
58372;SDS011;44177;43.356;27.672;2022-08-03T17:48:46;2.47;;;1.42;;
58372;SDS011;44177;43.356;27.672;2022-08-03T17:57:07;1.50;;;1.40;;
58372;SDS011;44177;43.356;27.672;2022-08-03T17:59:20;5.15;;;1.75;;
58372;SDS011;44177;43.356;27.672;2022-08-03T18:05:23;1.80;;;1.63;;
58372;SDS011;44177;43.356;27.672;2022-08-03T18:07:51;1.50;;;1.40;;
58372;SDS011;44177;43.356;27.672;2022-08-03T18:10:22;2.80;;;1.50;;
58372;SDS011;44177;43.356;27.672;2022-08-03T18:12:51;2.00;;;1.55;;
58372;SDS011;44177;43.356;27.672;2022-08-03T18:15:27;1.85;;;1.73;;
58372;SDS011;44177;43.356;27.672;2022-08-03T18:18:02;1.48;;;1.38;;
58372;SDS011;44177;43.356;27.672;2022-08-03T18:20:30;2.00;;;1.60;;
58372;SDS011;44177;43.356;27.672;2022-08-03T18:22:57;3.38;;;1.50;;
58372;SDS011;44177;43.356;27.672;2022-08-03T18:25:23;1.45;;;1.35;;
58372;SDS011;44177;43.356;27.672;2022-08-03T18:27:50;1.88;;;1.48;;
58372;SDS011;44177;43.356;27.672;2022-08-03T18:30:17;1.80;;;1.70;;
58372;SDS011;44177;43.356;27.672;2022-08-03T18:32:43;2.05;;;1.70;;
58372;SDS011;44177;43.356;27.672;2022-08-03T18:35:09;1.50;;;1.40;;
58372;SDS011;44177;43.356;27.672;2022-08-03T18:37:35;3.20;;;1.67;;
58372;SDS011;44177;43.356;27.672;2022-08-03T18:40:02;1.63;;;1.50;;
58372;SDS011;44177;43.356;27.672;2022-08-03T18:42:31;1.65;;;1.55;;
58372;SDS011;44177;43.356;27.672;2022-08-03T18:44:57;1.45;;;1.35;;
58372;SDS011;44177;43.356;27.672;2022-08-03T18:48:00;1.65;;;1.55;;
58372;SDS011;44177;43.356;27.672;2022-08-03T18:50:30;1.52;;;1.42;;
58372;SDS011;44177;43.356;27.672;2022-08-03T18:53:06;2.25;;;1.70;;
58372;SDS011;44177;43.356;27.672;2022-08-03T18:55:41;1.60;;;1.50;;
58372;SDS011;44177;43.356;27.672;2022-08-03T19:01:27;1.60;;;1.50;;
58372;SDS011;44177;43.356;27.672;2022-08-03T19:04:43;1.98;;;1.77;;
58372;SDS011;44177;43.356;27.672;2022-08-03T19:07:03;2.75;;;1.50;;
58372;SDS011;44177;43.356;27.672;2022-08-03T19:12:23;3.22;;;1.90;;
58372;SDS011;44177;43.356;27.672;2022-08-03T19:15:08;1.88;;;1.65;;
58372;SDS011;44177;43.356;27.672;2022-08-03T19:17:38;2.35;;;1.80;;
58372;SDS011;44177;43.356;27.672;2022-08-03T19:20:07;1.58;;;1.48;;
58372;SDS011;44177;43.356;27.672;2022-08-03T19:22:34;1.63;;;1.52;;
58372;SDS011;44177;43.356;27.672;2022-08-03T19:25:04;2.05;;;1.85;;
58372;SDS011;44177;43.356;27.672;2022-08-03T19:27:31;2.28;;;1.83;;
58372;SDS011;44177;43.356;27.672;2022-08-03T19:29:58;1.70;;;1.60;;
58372;SDS011;44177;43.356;27.672;2022-08-03T19:32:26;1.73;;;1.55;;
58372;SDS011;44177;43.356;27.672;2022-08-03T19:34:53;3.38;;;1.67;;
58372;SDS011;44177;43.356;27.672;2022-08-03T19:37:19;1.90;;;1.75;;
58372;SDS011;44177;43.356;27.672;2022-08-03T19:39:46;2.28;;;1.85;;
58372;SDS011;44177;43.356;27.672;2022-08-03T19:42:13;2.05;;;1.80;;
58372;SDS011;44177;43.356;27.672;2022-08-03T19:44:45;1.85;;;1.73;;
58372;SDS011;44177;43.356;27.672;2022-08-03T19:47:37;2.20;;;1.70;;
58372;SDS011;44177;43.356;27.672;2022-08-03T19:50:05;2.05;;;1.85;;
58372;SDS011;44177;43.356;27.672;2022-08-03T19:52:33;2.03;;;1.83;;
58372;SDS011;44177;43.356;27.672;2022-08-03T19:55:02;1.52;;;1.42;;
58372;SDS011;44177;43.356;27.672;2022-08-03T19:57:31;2.33;;;1.60;;
58372;SDS011;44177;43.356;27.672;2022-08-03T19:59:59;2.03;;;1.63;;
58372;SDS011;44177;43.356;27.672;2022-08-03T20:02:25;1.70;;;1.60;;
58372;SDS011;44177;43.356;27.672;2022-08-03T20:04:51;2.08;;;1.55;;
58372;SDS011;44177;43.356;27.672;2022-08-03T20:07:17;2.25;;;1.67;;
58372;SDS011;44177;43.356;27.672;2022-08-03T20:09:43;1.80;;;1.70;;
58372;SDS011;44177;43.356;27.672;2022-08-03T20:12:10;2.13;;;1.88;;
58372;SDS011;44177;43.356;27.672;2022-08-03T20:14:38;3.03;;;1.77;;
58372;SDS011;44177;43.356;27.672;2022-08-03T20:17:05;1.67;;;1.58;;
58372;SDS011;44177;43.356;27.672;2022-08-03T20:19:31;2.97;;;1.67;;
58372;SDS011;44177;43.356;27.672;2022-08-03T20:21:57;2.17;;;1.58;;
58372;SDS011;44177;43.356;27.672;2022-08-03T20:24:26;1.58;;;1.48;;
58372;SDS011;44177;43.356;27.672;2022-08-03T20:26:57;2.92;;;1.73;;
58372;SDS011;44177;43.356;27.672;2022-08-03T20:29:35;1.90;;;1.80;;
58372;SDS011;44177;43.356;27.672;2022-08-03T20:32:05;2.67;;;1.90;;
58372;SDS011;44177;43.356;27.672;2022-08-03T20:34:31;2.42;;;2.10;;
58372;SDS011;44177;43.356;27.672;2022-08-03T20:36:57;2.85;;;2.65;;
58372;SDS011;44177;43.356;27.672;2022-08-03T20:39:22;2.63;;;1.80;;
58372;SDS011;44177;43.356;27.672;2022-08-03T20:41:48;1.85;;;1.73;;
58372;SDS011;44177;43.356;27.672;2022-08-03T20:44:13;2.05;;;1.67;;
58372;SDS011;44177;43.356;27.672;2022-08-03T20:46:39;2.80;;;1.85;;
58372;SDS011;44177;43.356;27.672;2022-08-03T20:49:04;2.15;;;1.95;;
58372;SDS011;44177;43.356;27.672;2022-08-03T20:51:30;1.88;;;1.70;;
58372;SDS011;44177;43.356;27.672;2022-08-03T20:53:58;1.95;;;1.77;;
58372;SDS011;44177;43.356;27.672;2022-08-03T20:56:24;3.13;;;2.20;;
58372;SDS011;44177;43.356;27.672;2022-08-03T20:58:52;1.95;;;1.80;;
58372;SDS011;44177;43.356;27.672;2022-08-03T21:01:18;2.25;;;1.88;;
58372;SDS011;44177;43.356;27.672;2022-08-03T21:03:44;2.10;;;1.88;;
58372;SDS011;44177;43.356;27.672;2022-08-03T21:06:10;2.20;;;2.00;;
58372;SDS011;44177;43.356;27.672;2022-08-03T21:08:39;2.10;;;1.75;;
58372;SDS011;44177;43.356;27.672;2022-08-03T21:11:10;3.13;;;1.98;;
58372;SDS011;44177;43.356;27.672;2022-08-03T21:16:38;3.75;;;1.63;;
58372;SDS011;44177;43.356;27.672;2022-08-03T21:19:08;2.72;;;2.13;;
58372;SDS011;44177;43.356;27.672;2022-08-03T21:21:36;2.40;;;2.20;;
58372;SDS011;44177;43.356;27.672;2022-08-03T21:24:02;2.28;;;2.00;;
58372;SDS011;44177;43.356;27.672;2022-08-03T21:26:30;2.97;;;2.10;;
58372;SDS011;44177;43.356;27.672;2022-08-03T21:28:58;2.08;;;1.83;;
58372;SDS011;44177;43.356;27.672;2022-08-03T21:31:27;1.80;;;1.70;;
58372;SDS011;44177;43.356;27.672;2022-08-03T21:33:53;1.92;;;1.73;;
58372;SDS011;44177;43.356;27.672;2022-08-03T21:36:20;2.22;;;2.03;;
58372;SDS011;44177;43.356;27.672;2022-08-03T21:38:45;2.20;;;2.00;;
58372;SDS011;44177;43.356;27.672;2022-08-03T21:41:11;2.58;;;2.05;;
58372;SDS011;44177;43.356;27.672;2022-08-03T21:43:36;2.30;;;2.10;;
58372;SDS011;44177;43.356;27.672;2022-08-03T21:46:04;2.78;;;2.30;;
58372;SDS011;44177;43.356;27.672;2022-08-03T21:48:35;1.95;;;1.85;;
58372;SDS011;44177;43.356;27.672;2022-08-03T21:51:02;2.78;;;2.20;;
58372;SDS011;44177;43.356;27.672;2022-08-03T21:53:30;2.03;;;1.90;;
58372;SDS011;44177;43.356;27.672;2022-08-03T21:55:58;2.78;;;2.05;;
58372;SDS011;44177;43.356;27.672;2022-08-03T21:58:37;2.28;;;2.08;;
58372;SDS011;44177;43.356;27.672;2022-08-03T22:01:06;2.17;;;1.67;;
58372;SDS011;44177;43.356;27.672;2022-08-03T22:03:33;2.13;;;1.92;;
58372;SDS011;44177;43.356;27.672;2022-08-03T22:06:00;2.38;;;2.17;;
58372;SDS011;44177;43.356;27.672;2022-08-03T22:08:26;2.65;;;1.80;;
58372;SDS011;44177;43.356;27.672;2022-08-03T22:10:52;2.58;;;2.38;;
58372;SDS011;44177;43.356;27.672;2022-08-03T22:13:18;2.17;;;1.95;;
58372;SDS011;44177;43.356;27.672;2022-08-03T22:15:45;2.40;;;2.20;;
58372;SDS011;44177;43.356;27.672;2022-08-03T22:18:11;4.25;;;2.30;;
58372;SDS011;44177;43.356;27.672;2022-08-03T22:20:36;2.47;;;2.17;;
58372;SDS011;44177;43.356;27.672;2022-08-03T22:23:03;2.00;;;1.90;;
58372;SDS011;44177;43.356;27.672;2022-08-03T22:25:31;1.80;;;1.70;;
58372;SDS011;44177;43.356;27.672;2022-08-03T22:27:59;5.30;;;1.88;;
58372;SDS011;44177;43.356;27.672;2022-08-03T22:30:27;2.65;;;2.00;;
58372;SDS011;44177;43.356;27.672;2022-08-03T22:32:53;2.35;;;2.13;;
58372;SDS011;44177;43.356;27.672;2022-08-03T22:35:20;4.20;;;1.83;;
58372;SDS011;44177;43.356;27.672;2022-08-03T22:37:49;2.08;;;1.88;;
58372;SDS011;44177;43.356;27.672;2022-08-03T22:40:17;2.45;;;2.00;;
58372;SDS011;44177;43.356;27.672;2022-08-03T22:42:43;3.63;;;1.85;;
58372;SDS011;44177;43.356;27.672;2022-08-03T22:45:15;2.30;;;2.10;;
58372;SDS011;44177;43.356;27.672;2022-08-03T22:47:41;2.42;;;1.92;;
58372;SDS011;44177;43.356;27.672;2022-08-03T22:50:11;2.03;;;1.90;;
58372;SDS011;44177;43.356;27.672;2022-08-03T22:52:39;2.05;;;1.95;;
58372;SDS011;44177;43.356;27.672;2022-08-03T22:55:06;3.17;;;2.30;;
58372;SDS011;44177;43.356;27.672;2022-08-03T22:57:34;2.80;;;2.10;;
58372;SDS011;44177;43.356;27.672;2022-08-03T23:00:01;3.38;;;2.38;;
58372;SDS011;44177;43.356;27.672;2022-08-03T23:02:36;3.78;;;2.58;;
58372;SDS011;44177;43.356;27.672;2022-08-03T23:05:04;2.33;;;2.13;;
58372;SDS011;44177;43.356;27.672;2022-08-03T23:07:33;3.05;;;2.20;;
58372;SDS011;44177;43.356;27.672;2022-08-03T23:10:06;2.35;;;2.13;;
58372;SDS011;44177;43.356;27.672;2022-08-03T23:12:34;4.20;;;2.40;;
58372;SDS011;44177;43.356;27.672;2022-08-03T23:15:03;2.58;;;2.30;;
58372;SDS011;44177;43.356;27.672;2022-08-03T23:17:31;2.20;;;2.00;;
58372;SDS011;44177;43.356;27.672;2022-08-03T23:20:00;2.03;;;1.83;;
58372;SDS011;44177;43.356;27.672;2022-08-03T23:22:29;2.50;;;2.00;;
58372;SDS011;44177;43.356;27.672;2022-08-03T23:24:55;1.95;;;1.85;;
58372;SDS011;44177;43.356;27.672;2022-08-03T23:27:21;3.50;;;2.20;;